Terminal Aerodrome Forecast
Issued by NWS Cleveland, OH

Home | Current Version | Previous Version | Text Only | Print | Product List | Glossary On
Versions: 1 2 3 4 5 6 7 8 9 10 11 12 13 14 15 16 17 18 19 20 21 22 23 24
000
FTUS41 KCLE 171741
TAFERI
TAF
KERI 171741Z 1718/1818 19009KT P6SM OVC250
     FM172200 20007KT P6SM VCSH OVC060
      TEMPO 1722/1802 3SM -SHSN OVC010
     FM180400 22010KT P6SM VCSH OVC015
     FM181100 26011KT P6SM BKN020
     FM181600 25007KT P6SM BKN050
     FM181700 25007KT P6SM SCT100=

USA.gov is the U.S. government's official web portal to all federal, state and local government web resources and services.